Time;durP1;ratioP1;P1;durP2;ratioP2;P2;SDS_P1;SDS_P2;PMS_P1;PMS_P2;Temp;Humidity;BMP_temperature;BMP_pressure;BME280_temperature;BME280_humidity;BME280_pressure;Samples;Min_cycle;Max_cycle;Signal;HPM_P1;HPM_P2
2024/01/26 00:01:46;;;;;;;28.20;8.82;;;;;;;8.32;62.75;100691.88;5067372;28;20036;-75
2024/01/26 00:04:11;;;;;;;24.88;9.93;;;;;;;8.27;62.71;100685.97;5069022;28;20033;-76
2024/01/26 00:06:37;;;;;;;25.98;11.25;;;;;;;8.21;62.04;100675.69;5071526;28;20099;-76
2024/01/26 00:09:12;;;;;;;29.83;10.98;;;;;;;8.20;62.52;100696.25;5071372;28;20035;-75
2024/01/26 00:11:42;;;;;;;24.45;9.07;;;;;;;8.01;62.44;100676.25;5071346;28;20553;-75
2024/01/26 00:14:08;;;;;;;33.85;9.68;;;;;;;8.03;63.01;100693.91;5071535;28;20064;-75
2024/01/26 00:16:35;;;;;;;16.35;7.68;;;;;;;8.09;62.72;100689.94;5070392;28;20032;-75
2024/01/26 00:19:00;;;;;;;26.15;9.60;;;;;;;8.13;62.46;100700.31;5086493;28;20063;-75
2024/01/26 00:21:26;;;;;;;26.70;8.40;;;;;;;8.04;62.53;100690.25;5071479;28;20614;-76
2024/01/26 00:23:51;;;;;;;22.50;8.43;;;;;;;7.98;62.37;100703.25;5075298;28;20082;-75
2024/01/26 00:26:17;;;;;;;16.10;8.02;;;;;;;7.80;62.81;100694.63;5077721;28;20021;-77
2024/01/26 00:28:43;;;;;;;29.67;8.60;;;;;;;7.71;63.00;100686.38;5071494;28;20033;-74
2024/01/26 00:31:14;;;;;;;26.98;8.68;;;;;;;7.87;62.80;100706.66;5071072;28;20059;-77
2024/01/26 00:33:40;;;;;;;24.27;9.97;;;;;;;7.84;62.60;100719.38;5071180;28;20028;-75
2024/01/26 00:36:05;;;;;;;23.05;9.35;;;;;;;7.81;62.76;100719.59;5070745;28;20060;-76
2024/01/26 00:38:31;;;;;;;24.10;7.90;;;;;;;7.82;63.08;100722.19;5070450;28;20024;-76
2024/01/26 00:40:56;;;;;;;16.52;8.70;;;;;;;7.81;62.60;100708.88;5070896;28;20032;-76
2024/01/26 00:43:22;;;;;;;23.52;8.45;;;;;;;7.71;62.81;100697.09;5070477;28;20420;-74
2024/01/26 00:45:47;;;;;;;28.00;11.52;;;;;;;7.89;62.81;100714.59;5070690;28;20036;-78
2024/01/26 00:48:13;;;;;;;32.92;11.43;;;;;;;7.79;62.42;100700.13;5070525;28;20029;-75
2024/01/26 00:50:39;;;;;;;27.15;10.50;;;;;;;7.84;62.73;100712.22;5070434;28;20082;-74
2024/01/26 00:53:05;;;;;;;26.85;9.25;;;;;;;7.84;62.64;100703.31;5070359;28;20034;-79
2024/01/26 00:55:31;;;;;;;28.42;9.45;;;;;;;7.92;62.83;100728.59;5070631;28;20032;-76
2024/01/26 00:57:57;;;;;;;25.80;8.57;;;;;;;7.75;62.80;100693.25;5070515;28;20104;-75
2024/01/26 01:00:24;;;;;;;21.25;7.90;;;;;;;7.94;62.57;100720.47;5085221;28;20121;-76
2024/01/26 01:02:50;;;;;;;22.02;8.55;;;;;;;7.94;62.40;100715.13;5070668;28;20036;-76
2024/01/26 01:05:16;;;;;;;21.95;8.07;;;;;;;7.85;61.83;100710.41;5070990;28;20060;-76
2024/01/26 01:07:42;;;;;;;27.83;7.97;;;;;;;7.79;62.29;100684.06;5071645;28;20448;-76
2024/01/26 01:10:10;;;;;;;17.65;7.78;;;;;;;7.91;61.83;100707.31;5070663;28;20042;-74
2024/01/26 01:12:38;;;;;;;15.77;6.50;;;;;;;7.89;61.76;100709.25;5074053;28;20522;-79
2024/01/26 01:15:04;;;;;;;14.95;8.32;;;;;;;7.82;61.57;100695.41;5076180;28;20036;-73
2024/01/26 01:17:29;;;;;;;18.10;6.93;;;;;;;7.80;61.92;100696.50;5070861;28;20024;-76
2024/01/26 01:19:55;;;;;;;22.05;7.78;;;;;;;7.76;62.09;100684.25;5069803;28;20090;-76
2024/01/26 01:22:21;;;;;;;18.17;8.05;;;;;;;7.90;62.39;100695.72;5069877;28;20036;-77
2024/01/26 01:24:46;;;;;;;27.30;8.95;;;;;;;7.74;62.00;100652.22;5069885;28;20389;-74
2024/01/26 01:27:12;;;;;;;17.85;7.22;;;;;;;8.05;62.16;100696.47;5069703;28;20081;-73
2024/01/26 01:29:37;;;;;;;22.42;9.32;;;;;;;7.96;61.35;100673.88;5070070;28;20036;-75
2024/01/26 01:32:04;;;;;;;26.75;8.50;;;;;;;8.08;61.54;100696.25;5069413;28;20032;-76
2024/01/26 01:34:29;;;;;;;14.48;8.50;;;;;;;7.74;61.90;100621.91;5069655;28;20082;-74
2024/01/26 01:36:55;;;;;;;26.52;9.75;;;;;;;8.16;61.96;100686.72;5069727;28;20039;-75
2024/01/26 01:39:20;;;;;;;23.90;9.25;;;;;;;8.21;61.43;100692.63;5069532;28;20028;-74
2024/01/26 01:41:47;;;;;;;27.85;10.88;;;;;;;8.22;61.45;100678.25;5069259;28;20062;-74
2024/01/26 01:44:13;;;;;;;22.77;9.23;;;;;;;8.29;61.04;100684.06;5069641;28;20028;-75
2024/01/26 01:46:38;;;;;;;24.33;9.75;;;;;;;8.13;61.31;100640.56;5069576;28;20107;-74
2024/01/26 01:49:04;;;;;;;20.15;10.20;;;;;;;8.19;61.30;100642.81;5069524;28;20025;-74
2024/01/26 01:51:33;;;;;;;21.23;9.60;;;;;;;8.40;60.93;100689.53;5067201;28;20131;-75
2024/01/26 01:53:59;;;;;;;19.02;8.07;;;;;;;8.40;60.86;100692.22;5069309;28;20025;-74
2024/01/26 01:56:26;;;;;;;20.02;8.05;;;;;;;8.46;60.96;100698.97;5070049;28;20029;-75
2024/01/26 01:58:52;;;;;;;24.33;9.45;;;;;;;8.39;60.45;100690.50;5069832;28;20029;-76
2024/01/26 02:01:18;;;;;;;18.27;9.23;;;;;;;8.54;60.83;100700.13;5073945;28;20029;-78
2024/01/26 02:03:44;;;;;;;21.80;9.18;;;;;;;8.52;60.31;100687.78;5058880;28;20037;-75
2024/01/26 02:06:10;;;;;;;21.40;9.40;;;;;;;8.54;60.43;100705.47;5069854;28;20036;-75
2024/01/26 02:08:35;;;;;;;27.92;9.98;;;;;;;8.57;60.41;100710.63;5067562;28;20027;-78
2024/01/26 02:11:01;;;;;;;23.27;10.02;;;;;;;8.53;60.27;100706.44;5068639;28;20032;-75
2024/01/26 02:13:26;;;;;;;20.88;8.20;;;;;;;8.51;60.08;100705.69;5067602;28;20437;-76
2024/01/26 02:15:52;;;;;;;14.35;6.15;;;;;;;8.34;60.52;100665.84;5068947;28;20032;-76
2024/01/26 02:18:17;;;;;;;17.38;6.45;;;;;;;8.53;60.33;100711.78;5068719;28;20032;-74
2024/01/26 02:20:43;;;;;;;18.38;6.55;;;;;;;8.27;60.78;100669.91;5068874;28;20024;-76
2024/01/26 02:23:08;;;;;;;16.27;7.35;;;;;;;8.45;60.41;100711.50;5066235;28;20036;-76
2024/01/26 02:25:34;;;;;;;17.08;7.20;;;;;;;8.38;60.26;100701.34;5068589;28;20032;-74
2024/01/26 02:27:59;;;;;;;22.35;6.68;;;;;;;8.39;60.45;100706.56;5067634;28;20109;-78
2024/01/26 02:30:25;;;;;;;24.88;7.53;;;;;;;8.49;60.76;100718.38;5069205;28;20055;-74
2024/01/26 02:32:51;;;;;;;22.98;6.82;;;;;;;8.44;60.79;100725.84;5068446;28;20031;-76
2024/01/26 02:35:16;;;;;;;15.38;6.47;;;;;;;8.47;61.04;100717.59;5068437;28;20068;-75
2024/01/26 02:37:42;;;;;;;16.00;6.72;;;;;;;8.49;60.64;100720.19;5068581;28;20052;-75
2024/01/26 02:40:09;;;;;;;29.92;7.60;;;;;;;8.46;60.32;100713.22;5068756;28;20483;-75
2024/01/26 02:42:35;;;;;;;18.50;6.97;;;;;;;8.55;60.17;100717.94;5068764;28;20121;-76
2024/01/26 02:45:00;;;;;;;23.27;8.32;;;;;;;8.49;60.34;100718.38;5069333;28;20052;-76
2024/01/26 02:47:26;;;;;;;23.35;7.32;;;;;;;8.41;60.46;100726.06;5068701;28;20040;-76
2024/01/26 02:49:51;;;;;;;27.60;8.18;;;;;;;8.26;61.12;100721.75;5070267;28;20103;-77
2024/01/26 02:52:17;;;;;;;27.35;8.43;;;;;;;8.17;60.91;100723.28;5073803;28;20024;-76
2024/01/26 02:54:42;;;;;;;21.73;8.15;;;;;;;8.10;61.03;100731.84;5069691;28;20107;-75
2024/01/26 02:57:08;;;;;;;23.80;8.27;;;;;;;8.06;61.51;100736.56;5068153;28;20028;-74
2024/01/26 02:59:33;;;;;;;25.70;7.70;;;;;;;7.98;61.65;100732.72;5067067;28;20399;-73
2024/01/26 03:01:59;;;;;;;16.88;6.97;;;;;;;7.84;61.57;100732.78;5066706;28;20079;-75
2024/01/26 03:04:24;;;;;;;18.52;6.63;;;;;;;7.88;61.95;100747.69;5068552;28;20046;-74
2024/01/26 03:06:50;;;;;;;23.48;7.05;;;;;;;7.87;62.32;100741.47;5073030;28;20032;-74
2024/01/26 03:09:16;;;;;;;29.30;8.10;;;;;;;7.88;62.43;100745.88;5067996;28;20032;-74
2024/01/26 03:11:42;;;;;;;30.33;7.05;;;;;;;7.89;62.33;100754.75;5067949;28;20114;-76
2024/01/26 03:14:09;;;;;;;17.40;6.75;;;;;;;7.88;62.63;100758.38;5066551;28;20051;-74
2024/01/26 03:16:35;;;;;;;16.60;6.70;;;;;;;7.83;62.79;100765.88;5067603;28;20477;-77
2024/01/26 03:19:01;;;;;;;23.45;6.80;;;;;;;7.88;62.65;100759.25;5067947;28;20028;-75
2024/01/26 03:21:27;;;;;;;24.27;7.05;;;;;;;7.90;62.96;100761.81;5067665;28;20020;-75
2024/01/26 03:23:52;;;;;;;18.10;7.15;;;;;;;7.87;62.33;100762.03;5067871;28;20024;-74
2024/01/26 03:26:18;;;;;;;24.25;8.00;;;;;;;7.90;62.18;100761.81;5067846;28;20086;-76
2024/01/26 03:28:43;;;;;;;28.98;7.85;;;;;;;7.94;62.36;100768.69;5067753;28;20020;-75
2024/01/26 03:31:09;;;;;;;20.83;7.35;;;;;;;7.76;62.17;100749.38;5067584;28;20029;-74
2024/01/26 03:33:34;;;;;;;20.25;7.20;;;;;;;7.85;62.62;100774.66;5066648;28;20665;-76
2024/01/26 03:36:01;;;;;;;26.88;6.75;;;;;;;7.76;62.43;100764.56;5068433;28;20056;-74
2024/01/26 03:38:26;;;;;;;24.42;8.15;;;;;;;7.89;62.59;100786.91;5067741;28;20492;-74
2024/01/26 03:40:52;;;;;;;26.70;9.00;;;;;;;7.89;62.22;100776.19;5071549;28;20072;-74
2024/01/26 03:43:18;;;;;;;18.33;7.68;;;;;;;7.84;62.82;100764.91;5067023;28;20144;-73
2024/01/26 03:45:43;;;;;;;18.52;7.55;;;;;;;7.91;62.51;100779.59;5067754;28;20039;-75
2024/01/26 03:48:09;;;;;;;19.38;6.82;;;;;;;7.93;62.63;100783.88;5067503;28;20017;-75
2024/01/26 03:50:34;;;;;;;28.17;7.20;;;;;;;7.89;62.69;100776.19;5067547;28;20025;-76
2024/01/26 03:53:00;;;;;;;18.27;7.55;;;;;;;7.82;62.42;100783.78;5067396;28;20017;-78
2024/01/26 03:55:25;;;;;;;23.52;8.60;;;;;;;7.87;62.53;100767.38;5067702;28;20040;-74
2024/01/26 03:57:51;;;;;;;32.10;8.23;;;;;;;7.94;62.73;100790.97;5067652;28;20020;-75
2024/01/26 04:00:17;;;;;;;28.92;7.05;;;;;;;8.00;62.11;100789.69;5067117;28;20086;-76
2024/01/26 04:02:42;;;;;;;18.05;7.45;;;;;;;7.98;62.13;100787.09;5067446;28;20032;-76
2024/01/26 04:05:09;;;;;;;13.90;6.68;;;;;;;7.99;61.93;100788.81;5066948;28;20111;-75
2024/01/26 04:07:34;;;;;;;19.58;6.05;;;;;;;8.01;62.54;100802.13;5067540;28;20070;-76
2024/01/26 04:10:00;;;;;;;31.52;8.27;;;;;;;7.90;62.10;100785.91;5067882;28;20064;-76
2024/01/26 04:12:26;;;;;;;30.00;7.55;;;;;;;7.99;61.62;100801.34;5067463;28;20424;-74
2024/01/26 04:14:51;;;;;;;17.65;7.30;;;;;;;7.94;61.63;100800.81;5067388;28;20029;-77
2024/01/26 04:17:17;;;;;;;27.60;9.05;;;;;;;7.93;62.14;100796.41;5067270;28;20025;-75
2024/01/26 04:19:42;;;;;;;25.70;7.43;;;;;;;7.90;61.82;100792.13;5067538;28;20056;-75
2024/01/26 04:22:08;;;;;;;23.63;8.25;;;;;;;7.85;61.51;100788.06;5067841;28;20056;-76
2024/01/26 04:24:36;;;;;;;25.63;7.93;;;;;;;7.76;61.98;100792.22;5067775;28;20079;-75
2024/01/26 04:27:02;;;;;;;23.35;8.20;;;;;;;7.66;61.93;100770.56;5068927;28;20024;-77
2024/01/26 04:29:28;;;;;;;26.73;8.68;;;;;;;7.75;62.60;100789.63;5071951;28;20075;-77
2024/01/26 04:31:53;;;;;;;29.55;7.50;;;;;;;7.71;62.00;100794.31;5051371;28;20518;-75
2024/01/26 04:34:19;;;;;;;25.15;7.82;;;;;;;7.72;62.55;100796.03;5068019;28;20042;-73
2024/01/26 04:36:46;;;;;;;28.30;7.28;;;;;;;7.69;62.68;100798.94;5067470;28;20036;-75
2024/01/26 04:39:12;;;;;;;19.13;7.38;;;;;;;7.66;62.37;100785.75;5064515;28;20076;-75
2024/01/26 04:41:38;;;;;;;28.80;8.55;;;;;;;7.61;62.24;100796.75;5067111;28;20082;-76
2024/01/26 04:44:04;;;;;;;18.77;7.22;;;;;;;7.51;62.36;100792.97;5066895;28;20047;-75
2024/01/26 04:46:29;;;;;;;26.15;7.25;;;;;;;7.63;62.12;100808.22;5066875;28;20412;-77
2024/01/26 04:48:55;;;;;;;20.00;6.75;;;;;;;7.66;62.17;100807.16;5065528;28;20074;-76
2024/01/26 04:51:20;;;;;;;14.32;7.95;;;;;;;7.72;61.77;100811.25;5068059;28;20025;-75
2024/01/26 04:53:46;;;;;;;31.02;9.15;;;;;;;7.73;62.23;100826.34;5071798;28;20123;-78
2024/01/26 04:56:11;;;;;;;20.52;7.88;;;;;;;7.78;62.50;100826.91;5072085;28;20035;-78
2024/01/26 04:58:38;;;;;;;25.30;10.13;;;;;;;7.78;61.95;100816.19;5078834;28;20040;-77
2024/01/26 05:01:04;;;;;;;31.10;10.07;;;;;;;7.78;62.48;100832.25;5072388;28;20028;-76
2024/01/26 05:03:30;;;;;;;30.10;10.90;;;;;;;7.80;62.11;100825.00;5070279;28;20036;-76
2024/01/26 05:05:55;;;;;;;49.88;14.02;;;;;;;7.82;61.77;100828.41;5070504;28;21041;-77
2024/01/26 05:08:21;;;;;;;29.40;11.68;;;;;;;7.83;62.30;100835.50;5071383;28;20150;-77
2024/01/26 05:10:46;;;;;;;30.30;10.20;;;;;;;7.77;61.93;100827.88;5071574;28;20081;-76
2024/01/26 05:13:12;;;;;;;23.45;9.85;;;;;;;7.64;62.08;100809.94;5070981;28;20023;-78
2024/01/26 05:15:37;;;;;;;21.90;9.38;;;;;;;7.62;61.93;100816.34;5071343;28;20115;-77
2024/01/26 05:18:04;;;;;;;30.00;10.60;;;;;;;7.61;61.94;100812.81;5080016;28;20012;-77
2024/01/26 05:20:29;;;;;;;22.15;8.95;;;;;;;7.52;61.96;100816.09;5082485;28;20484;-77
2024/01/26 05:22:55;;;;;;;25.15;9.23;;;;;;;7.52;61.97;100826.78;5070893;28;20090;-78
2024/01/26 05:25:20;;;;;;;36.35;10.88;;;;;;;7.63;62.24;100840.34;5070704;28;20036;-74
2024/01/26 05:27:46;;;;;;;24.25;9.13;;;;;;;7.63;61.90;100839.50;5069511;28;20045;-74
2024/01/26 05:30:12;;;;;;;28.05;9.93;;;;;;;7.51;62.19;100819.75;5069901;28;20043;-81
2024/01/26 05:32:37;;;;;;;25.77;8.43;;;;;;;7.58;61.67;100837.09;5067311;28;20539;-77
2024/01/26 05:35:03;;;;;;;40.05;10.43;;;;;;;7.64;62.69;100842.03;5069399;28;20689;-74
2024/01/26 05:37:29;;;;;;;26.98;9.57;;;;;;;7.56;62.81;100817.63;5069280;28;20110;-78
2024/01/26 05:39:54;;;;;;;32.83;10.20;;;;;;;7.69;62.47;100855.16;5069472;28;20024;-75
2024/01/26 05:42:20;;;;;;;24.88;11.10;;;;;;;7.72;62.47;100846.03;5068531;28;20020;-79
2024/01/26 05:44:45;;;;;;;40.58;12.30;;;;;;;7.65;61.86;100848.25;5069043;28;20037;-81
2024/01/26 05:47:11;;;;;;;30.45;11.05;;;;;;;7.59;61.98;100837.97;5069493;28;20103;-75
2024/01/26 05:49:36;;;;;;;35.53;11.35;;;;;;;7.59;61.66;100840.63;5068936;28;20036;-80
2024/01/26 05:52:02;;;;;;;36.20;11.50;;;;;;;7.59;61.68;100857.56;5068678;28;20044;-77
2024/01/26 05:54:28;;;;;;;31.00;9.85;;;;;;;7.46;62.17;100824.53;5068436;28;20112;-76
2024/01/26 05:56:53;;;;;;;23.02;9.60;;;;;;;7.56;61.92;100852.41;5069371;28;20050;-78
2024/01/26 05:59:19;;;;;;;27.63;9.50;;;;;;;7.38;61.71;100832.19;5069478;28;20028;-79
2024/01/26 06:01:44;;;;;;;24.23;9.15;;;;;;;7.56;62.14;100859.56;5069913;28;20032;-75
2024/01/26 06:04:10;;;;;;;29.13;9.70;;;;;;;7.31;61.46;100828.19;5070353;28;20032;-76
2024/01/26 06:06:35;;;;;;;32.83;9.60;;;;;;;7.61;61.72;100863.66;5069740;28;20025;-76
2024/01/26 06:09:01;;;;;;;29.58;9.38;;;;;;;7.56;62.29;100865.78;5076452;28;20056;-78
2024/01/26 06:11:26;;;;;;;28.15;8.95;;;;;;;7.64;62.62;100873.34;5076945;28;20032;-77
2024/01/26 06:13:52;;;;;;;29.85;9.48;;;;;;;7.73;62.50;100875.41;5068234;28;20531;-74
2024/01/26 06:16:18;;;;;;;21.90;9.05;;;;;;;7.58;61.54;100830.91;5068784;28;20104;-75
2024/01/26 06:18:44;;;;;;;24.27;8.77;;;;;;;7.86;61.48;100875.47;5068336;28;20077;-73
2024/01/26 06:21:12;;;;;;;21.55;9.13;;;;;;;7.95;61.04;100875.69;5068604;28;20029;-73
2024/01/26 06:23:38;;;;;;;27.02;10.05;;;;;;;7.91;61.30;100858.13;5068700;28;20037;-72
2024/01/26 06:26:04;;;;;;;28.83;8.43;;;;;;;7.99;61.39;100873.66;5068069;28;20028;-75
2024/01/26 06:28:30;;;;;;;31.83;10.00;;;;;;;7.97;61.23;100859.53;5068629;28;20036;-76
2024/01/26 06:30:55;;;;;;;18.05;8.23;;;;;;;8.03;61.08;100869.84;5068581;28;20511;-76
2024/01/26 06:33:21;;;;;;;25.60;7.53;;;;;;;8.05;60.56;100883.97;5067916;28;20025;-78
2024/01/26 06:35:46;;;;;;;30.98;8.88;;;;;;;8.09;61.16;100874.78;5068634;28;20075;-77
2024/01/26 06:38:12;;;;;;;42.65;10.23;;;;;;;8.10;61.04;100871.16;5068808;28;20126;-77
2024/01/26 06:40:39;;;;;;;32.38;9.85;;;;;;;7.93;60.63;100860.69;5068596;28;20021;-76
2024/01/26 06:43:07;;;;;;;30.38;9.55;;;;;;;8.07;60.31;100876.72;5068716;28;20052;-78
2024/01/26 06:45:33;;;;;;;29.25;10.95;;;;;;;8.03;60.86;100888.59;5069091;28;20054;-78
2024/01/26 06:47:59;;;;;;;30.42;10.52;;;;;;;8.13;61.05;100892.38;5069865;28;20472;-75
2024/01/26 06:50:24;;;;;;;44.65;10.68;;;;;;;8.11;60.77;100894.28;5074722;28;20033;-74
2024/01/26 06:52:50;;;;;;;25.08;9.23;;;;;;;8.18;60.78;100900.94;5067937;28;20571;-75
2024/01/26 06:55:15;;;;;;;28.17;9.45;;;;;;;8.11;60.56;100891.59;5077823;28;20017;-77
2024/01/26 06:57:41;;;;;;;39.13;10.43;;;;;;;7.97;61.19;100884.50;5071263;28;20029;-75
2024/01/26 07:00:07;;;;;;;40.97;8.60;;;;;;;7.90;61.40;100869.78;5068050;28;20024;-73
2024/01/26 07:02:33;;;;;;;32.25;9.27;;;;;;;8.06;61.19;100883.03;5067401;28;20074;-73
2024/01/26 07:04:59;;;;;;;19.13;8.23;;;;;;;7.98;60.83;100866.63;5067486;28;20443;-73
2024/01/26 07:07:24;;;;;;;22.42;8.32;;;;;;;8.06;61.14;100874.97;5067886;28;20073;-74
2024/01/26 07:09:50;;;;;;;36.08;9.43;;;;;;;8.13;61.21;100881.66;5067279;28;20512;-72
2024/01/26 07:12:15;;;;;;;22.52;9.07;;;;;;;8.25;61.14;100883.50;5067336;28;20142;-77
2024/01/26 07:14:41;;;;;;;23.25;8.13;;;;;;;8.27;60.44;100878.88;5066995;28;20060;-74
2024/01/26 07:17:06;;;;;;;22.95;7.85;;;;;;;8.32;60.71;100886.66;5067528;28;20507;-78
2024/01/26 07:19:32;;;;;;;22.20;10.77;;;;;;;8.36;60.43;100867.56;5067488;28;20039;-76
2024/01/26 07:21:57;;;;;;;32.45;10.95;;;;;;;8.45;60.15;100880.34;5048481;28;20112;-73
2024/01/26 07:24:23;;;;;;;38.33;10.27;;;;;;;8.52;60.32;100868.25;5067133;28;20052;-74
2024/01/26 07:26:48;;;;;;;25.92;9.30;;;;;;;8.59;60.28;100890.13;5067444;28;20506;-74
2024/01/26 07:29:14;;;;;;;21.67;7.47;;;;;;;8.62;59.79;100879.19;5067310;28;20452;-73
2024/01/26 07:31:41;;;;;;;21.38;8.77;;;;;;;8.77;60.24;100888.84;5067037;28;20111;-78
2024/01/26 07:34:06;;;;;;;22.83;9.30;;;;;;;8.83;59.86;100883.06;5067147;28;20042;-78
2024/01/26 07:36:36;;;;;;;32.13;9.57;;;;;;;8.85;59.04;100878.44;5067824;28;20501;-76
2024/01/26 07:39:03;;;;;;;22.90;9.55;;;;;;;8.88;58.83;100880.03;5048954;28;20549;-75
2024/01/26 07:41:28;;;;;;;37.13;7.90;;;;;;;9.07;58.34;100907.31;5069894;28;20139;-75
2024/01/26 07:43:54;;;;;;;21.85;8.00;;;;;;;8.88;58.32;100886.28;5072218;28;20070;-73
2024/01/26 07:46:19;;;;;;;28.15;8.60;;;;;;;8.89;58.38;100898.72;5068201;28;20070;-74
2024/01/26 07:48:45;;;;;;;21.33;7.18;;;;;;;8.87;58.40;100897.13;5067216;28;20033;-76
2024/01/26 07:51:10;;;;;;;31.50;8.55;;;;;;;8.80;58.87;100925.31;5066825;28;20024;-74
2024/01/26 07:53:36;;;;;;;24.95;8.75;;;;;;;8.74;58.74;100910.53;5067364;28;20082;-73
2024/01/26 07:56:02;;;;;;;25.17;9.20;;;;;;;8.81;59.40;100908.28;5066956;28;20107;-72
2024/01/26 07:58:27;;;;;;;26.48;9.60;;;;;;;9.00;59.21;100922.09;5066918;28;20048;-75
2024/01/26 08:00:53;;;;;;;33.55;10.15;;;;;;;8.91;58.83;100902.16;5066793;28;20090;-74
2024/01/26 08:03:18;;;;;;;22.52;9.13;;;;;;;9.10;58.51;100917.81;5066980;28;20027;-75
2024/01/26 08:05:44;;;;;;;22.17;9.48;;;;;;;9.23;58.42;100934.78;5067123;28;20190;-74
2024/01/26 08:08:09;;;;;;;24.02;8.75;;;;;;;9.27;58.36;100936.25;5067147;28;20028;-74
2024/01/26 08:10:35;;;;;;;34.92;11.60;;;;;;;9.32;58.16;100939.50;5064534;28;20040;-76
2024/01/26 08:13:00;;;;;;;27.63;11.48;;;;;;;9.44;58.15;100933.25;5067265;28;20090;-74
2024/01/26 08:15:26;;;;;;;26.73;10.15;;;;;;;9.47;58.06;100911.53;5067052;28;20032;-76
2024/01/26 08:17:51;;;;;;;27.80;13.23;;;;;;;9.54;57.98;100907.41;5067201;28;20487;-73
2024/01/26 08:20:17;;;;;;;33.25;14.93;;;;;;;9.78;57.30;100937.84;5067559;28;20681;-74
2024/01/26 08:22:43;;;;;;;45.08;12.32;;;;;;;9.84;57.05;100942.81;5067575;28;20395;-75
2024/01/26 08:25:09;;;;;;;44.30;14.23;;;;;;;9.73;56.81;100913.19;5069400;28;20104;-76
2024/01/26 08:27:35;;;;;;;22.23;8.32;;;;;;;9.94;56.28;100936.75;5072751;28;20059;-76
2024/01/26 08:30:01;;;;;;;32.42;9.65;;;;;;;10.00;56.14;100942.50;5077145;28;20051;-76
2024/01/26 08:32:26;;;;;;;28.55;9.07;;;;;;;9.92;56.39;100934.19;5084957;28;20021;-78
2024/01/26 08:34:52;;;;;;;18.90;7.13;;;;;;;9.91;55.97;100920.88;5074835;28;20053;-75
2024/01/26 08:37:17;;;;;;;34.58;10.43;;;;;;;9.95;56.17;100916.97;5073777;28;20100;-74
2024/01/26 08:39:47;;;;;;;37.33;8.35;;;;;;;10.18;56.32;100945.72;5072791;28;20674;-75
2024/01/26 08:42:12;;;;;;;20.38;8.38;;;;;;;10.28;55.99;100949.41;5072490;28;20054;-73
2024/01/26 08:44:38;;;;;;;24.75;8.18;;;;;;;10.27;54.77;100918.97;5072887;28;20456;-74
2024/01/26 08:47:04;;;;;;;25.80;7.47;;;;;;;10.56;54.86;100950.88;5070473;28;20512;-76
2024/01/26 08:49:30;;;;;;;16.73;6.70;;;;;;;10.43;54.46;100939.38;5070694;28;20040;-76
2024/01/26 08:51:57;;;;;;;22.48;5.97;;;;;;;10.32;54.14;100922.19;5070347;28;20047;-75
2024/01/26 08:54:24;;;;;;;26.13;7.72;;;;;;;10.47;55.05;100952.44;5070735;28;20071;-73
2024/01/26 08:56:50;;;;;;;23.63;6.03;;;;;;;10.46;54.85;100961.47;5069077;28;20036;-74
2024/01/26 08:59:16;;;;;;;15.70;6.72;;;;;;;10.62;54.91;100964.72;5068989;28;20111;-75
2024/01/26 09:01:41;;;;;;;22.20;6.68;;;;;;;10.58;54.42;100960.53;5068755;28;20116;-75
2024/01/26 09:04:08;;;;;;;17.60;6.03;;;;;;;10.59;54.13;100970.34;5070454;28;20117;-77
2024/01/26 09:06:34;;;;;;;14.30;5.80;;;;;;;10.51;54.27;100963.81;5070230;28;20107;-73
2024/01/26 09:09:01;;;;;;;23.77;6.55;;;;;;;10.55;54.12;100982.28;5070369;28;20036;-73
2024/01/26 09:11:26;;;;;;;20.08;6.50;;;;;;;10.42;54.23;100976.13;5070464;28;20052;-74
2024/01/26 09:13:52;;;;;;;18.90;7.88;;;;;;;10.38;54.36;100986.25;5070762;28;20041;-76
2024/01/26 09:16:17;;;;;;;18.98;6.43;;;;;;;10.28;54.70;100984.34;5070858;28;20437;-74
2024/01/26 09:18:43;;;;;;;18.80;7.10;;;;;;;10.31;55.22;100995.75;5070621;28;20033;-76
2024/01/26 09:21:11;;;;;;;21.60;7.15;;;;;;;10.28;54.84;101006.72;5070569;28;20044;-72
2024/01/26 09:23:37;;;;;;;12.20;6.38;;;;;;;10.20;55.11;100992.16;5069574;28;20083;-75
2024/01/26 09:26:03;;;;;;;20.10;6.45;;;;;;;10.09;55.05;100995.59;5069826;28;20078;-74
2024/01/26 09:28:29;;;;;;;17.17;6.28;;;;;;;9.99;55.23;100994.56;5069170;28;20036;-76
2024/01/26 09:30:54;;;;;;;23.20;7.65;;;;;;;9.94;55.51;101006.63;5069613;28;20028;-75
2024/01/26 09:33:20;;;;;;;22.60;6.75;;;;;;;9.85;55.80;100987.50;5069065;28;20024;-75
2024/01/26 09:35:46;;;;;;;25.70;7.43;;;;;;;9.85;56.49;100997.38;5068444;28;20111;-75
2024/01/26 09:38:12;;;;;;;20.63;6.35;;;;;;;9.77;56.50;101005.13;5069289;28;20048;-75
2024/01/26 09:40:39;;;;;;;20.98;7.30;;;;;;;9.76;56.93;100989.97;5083553;28;20503;-73
2024/01/26 09:43:06;;;;;;;35.53;8.60;;;;;;;9.92;56.97;101014.78;5069056;28;20028;-73
2024/01/26 09:45:32;;;;;;;26.42;6.15;;;;;;;9.91;57.26;101012.22;5068926;28;20420;-75
2024/01/26 09:47:58;;;;;;;23.25;6.40;;;;;;;9.90;57.31;101021.22;5068820;28;20451;-76
2024/01/26 09:50:25;;;;;;;26.88;6.65;;;;;;;9.84;57.13;101020.72;5069387;28;20024;-75
2024/01/26 09:52:51;;;;;;;15.13;6.95;;;;;;;9.77;57.42;101022.13;5069290;28;20024;-75
2024/01/26 09:55:19;;;;;;;20.05;7.25;;;;;;;9.64;58.27;101010.53;5069039;28;20025;-77
2024/01/26 09:57:45;;;;;;;21.48;6.70;;;;;;;9.75;58.23;101032.09;5069479;28;20052;-74
2024/01/26 10:00:12;;;;;;;23.42;7.75;;;;;;;9.69;58.38;101040.59;5069493;28;20056;-75
2024/01/26 10:02:38;;;;;;;31.70;8.88;;;;;;;9.60;58.51;101035.88;5069981;28;20048;-76
2024/01/26 10:05:05;;;;;;;21.63;8.13;;;;;;;9.60;58.58;101041.25;5069619;28;20522;-74
2024/01/26 10:07:30;;;;;;;23.23;8.35;;;;;;;9.40;59.09;101049.84;5073358;28;20693;-76
2024/01/26 10:09:56;;;;;;;24.90;9.70;;;;;;;9.14;60.10;101048.13;5071805;28;20024;-75
2024/01/26 10:12:23;;;;;;;21.00;9.55;;;;;;;8.89;60.64;101032.84;5068859;28;20089;-75
2024/01/26 10:14:49;;;;;;;20.60;8.93;;;;;;;8.91;61.11;101046.13;5068531;28;20498;-73
2024/01/26 10:17:18;;;;;;;13.75;7.68;;;;;;;8.98;61.40;101042.94;5068742;28;20044;-75
2024/01/26 10:19:44;;;;;;;23.10;10.40;;;;;;;8.93;61.02;101044.22;5068544;28;20112;-74
2024/01/26 10:22:09;;;;;;;14.57;9.18;;;;;;;8.80;61.39;101048.69;5068407;28;20033;-73
2024/01/26 10:24:35;;;;;;;19.50;10.57;;;;;;;8.64;61.72;101044.34;5068896;28;20044;-75
2024/01/26 10:27:01;;;;;;;19.73;11.65;;;;;;;8.59;61.90;101043.78;5069489;28;20028;-75
2024/01/26 10:29:26;;;;;;;12.25;8.45;;;;;;;8.65;62.52;101050.59;5072975;28;20055;-75
2024/01/26 10:31:52;;;;;;;17.42;7.97;;;;;;;8.70;62.60;101052.00;5068415;28;20024;-76
2024/01/26 10:34:18;;;;;;;11.77;7.20;;;;;;;8.65;62.64;101040.69;5067927;28;20028;-74
2024/01/26 10:36:46;;;;;;;11.32;7.20;;;;;;;8.81;62.83;101056.63;5068046;28;20074;-74
2024/01/26 10:39:17;;;;;;;16.00;9.05;;;;;;;8.90;62.51;101044.44;5066828;28;20028;-75
2024/01/26 10:41:46;;;;;;;12.85;8.30;;;;;;;8.92;62.33;101042.50;5068809;28;20403;-77
2024/01/26 10:44:15;;;;;;;11.88;7.78;;;;;;;8.84;62.47;101047.53;5068166;28;20083;-75
2024/01/26 10:46:41;;;;;;;16.55;7.90;;;;;;;8.62;63.10;101032.84;5068403;28;20032;-78
2024/01/26 10:49:09;;;;;;;8.10;6.35;;;;;;;8.61;63.41;101039.19;5068212;28;20056;-75
2024/01/26 10:51:37;;;;;;;15.30;7.32;;;;;;;8.66;64.27;101060.31;5068581;28;20070;-75
2024/01/26 10:54:08;;;;;;;15.13;6.90;;;;;;;8.58;64.21;101034.03;5050861;28;20080;-74
2024/01/26 10:56:34;;;;;;;16.35;7.10;;;;;;;8.64;64.40;101033.63;5075313;28;20098;-76
2024/01/26 10:59:00;;;;;;;13.75;7.55;;;;;;;8.82;64.28;101052.13;5070233;28;20420;-75
2024/01/26 11:01:26;;;;;;;12.20;5.78;;;;;;;8.98;64.36;101059.03;5068131;28;20067;-75
2024/01/26 11:03:55;;;;;;;10.35;6.88;;;;;;;9.05;63.21;101054.13;5068214;28;20056;-74
2024/01/26 11:06:21;;;;;;;10.52;6.57;;;;;;;9.07;63.39;101058.41;5067632;28;20055;-78
2024/01/26 11:08:46;;;;;;;11.60;6.93;;;;;;;9.17;63.39;101055.97;5067612;28;20543;-75
2024/01/26 11:11:15;;;;;;;8.05;4.43;;;;;;;9.09;62.93;101052.94;5067710;28;20024;-77
2024/01/26 11:13:40;;;;;;;6.85;5.25;;;;;;;9.01;62.94;101047.22;5068102;28;20460;-76
2024/01/26 11:16:07;;;;;;;6.55;4.88;;;;;;;8.99;62.56;101038.44;5067911;28;20115;-73
2024/01/26 11:18:37;;;;;;;13.63;7.45;;;;;;;9.17;62.89;101070.22;5068089;28;20024;-75